Time;durP1;ratioP1;P1;durP2;ratioP2;P2;SDS_P1;SDS_P2;PMS_P1;PMS_P2;Temp;Humidity;BMP_temperature;BMP_pressure;BME280_temperature;BME280_humidity;BME280_pressure;Samples;Min_cycle;Max_cycle;Signal;HPM_P1;HPM_P2
2022/12/22 03:26:19;;;;;;;33.50;22.48;;;8.60;99.90;;;;;;5089498;28;20578;-68
2022/12/22 03:28:45;;;;;;;28.73;21.65;;;8.70;99.90;;;;;;5123214;27;20115;-68
2022/12/22 03:31:11;;;;;;;30.65;22.35;;;8.70;99.90;;;;;;5093107;28;20095;-68
2022/12/22 03:33:37;;;;;;;34.78;23.45;;;8.70;99.90;;;;;;5109508;28;20036;-68
2022/12/22 03:36:04;;;;;;;37.88;24.05;;;8.70;99.90;;;;;;5075811;28;20028;-68
2022/12/22 03:38:30;;;;;;;36.38;23.13;;;8.70;99.90;;;;;;5090184;28;20095;-68
2022/12/22 03:40:55;;;;;;;51.38;22.88;;;8.70;99.90;;;;;;5092778;28;20545;-68
2022/12/22 03:51:44;;;;;;;32.08;22.42;;;8.60;99.90;;;;;;5092345;28;20131;-68
2022/12/22 03:54:11;;;;;;;27.65;20.95;;;8.60;99.90;;;;;;5090786;28;20031;-68
2022/12/22 03:56:37;;;;;;;30.05;21.35;;;8.60;99.90;;;;;;5092621;28;20050;-68
2022/12/22 03:59:03;;;;;;;33.70;21.55;;;8.60;99.90;;;;;;5089508;28;20092;-68
2022/12/22 04:01:29;;;;;;;32.03;21.27;;;8.60;99.90;;;;;;5092482;28;20409;-68
2022/12/22 04:03:54;;;;;;;29.77;20.45;;;8.60;99.90;;;;;;5092218;28;20051;-68
2022/12/22 04:06:20;;;;;;;31.95;21.38;;;8.60;99.90;;;;;;5074964;28;20071;-68
2022/12/22 04:08:46;;;;;;;33.25;20.60;;;8.60;99.90;;;;;;5092563;28;20036;-68
2022/12/22 04:13:58;;;;;;;31.90;20.42;;;8.60;99.90;;;;;;5125742;27;20383;-68
2022/12/22 04:16:24;;;;;;;25.88;20.10;;;8.60;99.90;;;;;;5090731;28;20043;-68
2022/12/22 04:18:50;;;;;;;37.67;19.95;;;8.60;99.90;;;;;;5075298;28;20131;-67
2022/12/22 04:21:16;;;;;;;27.75;20.20;;;8.60;99.90;;;;;;5091964;28;20110;-68
2022/12/22 04:23:41;;;;;;;25.92;20.20;;;8.70;99.90;;;;;;5092290;28;20031;-68
2022/12/22 04:26:07;;;;;;;27.05;19.50;;;8.70;99.90;;;;;;5089704;28;20043;-68
2022/12/22 04:28:33;;;;;;;29.60;20.75;;;8.70;99.90;;;;;;5125778;27;20124;-68
2022/12/22 04:30:59;;;;;;;48.35;20.92;;;8.70;99.90;;;;;;5092216;28;20040;-68
2022/12/22 04:33:24;;;;;;;45.28;20.38;;;8.70;99.90;;;;;;5092158;28;20038;-68
2022/12/22 04:35:50;;;;;;;22.00;17.83;;;8.70;99.90;;;;;;5092540;28;20035;-68
2022/12/22 04:38:16;;;;;;;35.83;19.48;;;8.70;99.90;;;;;;5091675;28;20055;-68
2022/12/22 04:40:42;;;;;;;27.40;19.63;;;8.70;99.90;;;;;;5091177;28;20105;-68
2022/12/22 04:43:07;;;;;;;28.35;20.10;;;8.70;99.90;;;;;;5089924;28;20035;-68
2022/12/22 04:45:33;;;;;;;26.38;20.52;;;8.70;99.90;;;;;;5092022;28;20043;-69
2022/12/22 04:47:58;;;;;;;29.85;20.63;;;8.70;99.90;;;;;;5092059;28;20043;-67
2022/12/22 04:50:24;;;;;;;25.33;19.90;;;8.70;99.90;;;;;;5095185;28;20490;-68
2022/12/22 04:52:50;;;;;;;27.13;19.80;;;8.70;99.90;;;;;;5130298;27;20032;-68
2022/12/22 04:55:16;;;;;;;28.30;19.75;;;8.70;99.90;;;;;;5095817;28;20107;-68
2022/12/22 04:57:41;;;;;;;32.45;20.67;;;8.70;99.90;;;;;;5079449;28;20042;-68
2022/12/22 05:00:08;;;;;;;25.80;18.92;;;8.60;99.90;;;;;;5095254;28;20082;-68
2022/12/22 05:02:33;;;;;;;34.13;20.30;;;8.60;99.90;;;;;;5096172;28;20072;-68
2022/12/22 05:04:59;;;;;;;27.88;20.02;;;8.60;99.90;;;;;;5094321;27;20071;-68
2022/12/22 05:07:25;;;;;;;30.42;19.95;;;8.60;99.90;;;;;;5128924;27;20489;-68
2022/12/22 05:09:50;;;;;;;36.83;21.88;;;8.60;99.90;;;;;;5095349;28;20031;-68
2022/12/22 05:15:00;;;;;;;30.05;19.88;;;8.60;99.90;;;;;;5129226;27;20485;-67
2022/12/22 05:17:26;;;;;;;27.50;19.10;;;8.60;99.90;;;;;;5090698;27;20058;-68
2022/12/22 05:19:51;;;;;;;30.33;19.98;;;8.60;99.90;;;;;;5092726;28;20043;-68
2022/12/22 05:22:17;;;;;;;35.03;20.73;;;8.60;99.90;;;;;;5095175;28;20062;-68
2022/12/22 05:24:43;;;;;;;45.58;21.02;;;8.60;99.90;;;;;;5094606;28;20418;-68
2022/12/22 05:27:10;;;;;;;31.38;20.45;;;8.50;99.90;;;;;;5128758;27;20043;-69
2022/12/22 05:29:36;;;;;;;30.42;20.67;;;8.50;99.90;;;;;;5094122;28;20046;-68
2022/12/22 05:32:02;;;;;;;31.48;20.80;;;8.50;99.90;;;;;;5095283;28;20035;-68
2022/12/22 05:34:27;;;;;;;36.33;22.15;;;8.50;99.90;;;;;;5075583;28;20059;-68
2022/12/22 05:36:53;;;;;;;35.97;21.67;;;8.50;99.90;;;;;;5093748;28;20031;-68
2022/12/22 05:39:18;;;;;;;37.75;21.63;;;8.50;99.90;;;;;;5094912;28;20382;-68
2022/12/22 05:41:44;;;;;;;47.40;25.00;;;8.50;99.90;;;;;;5077129;28;20047;-68
2022/12/22 05:44:10;;;;;;;59.40;26.85;;;8.50;99.90;;;;;;5094083;28;20085;-68
2022/12/22 05:46:35;;;;;;;57.47;25.33;;;8.50;99.90;;;;;;5094573;28;20562;-68
2022/12/22 05:49:01;;;;;;;78.80;27.17;;;8.50;99.90;;;;;;5077073;28;20126;-68
2022/12/22 05:51:26;;;;;;;83.47;26.92;;;8.50;99.90;;;;;;5077195;28;20126;-68
2022/12/22 05:53:52;;;;;;;78.82;29.02;;;8.50;99.90;;;;;;5094941;27;20397;-68
2022/12/22 05:56:18;;;;;;;96.07;29.23;;;8.40;99.90;;;;;;5095534;28;20031;-68
2022/12/22 05:58:43;;;;;;;114.35;31.08;;;8.50;99.90;;;;;;5094873;28;20435;-68
2022/12/22 06:01:09;;;;;;;92.70;29.67;;;8.40;99.90;;;;;;5093279;28;20145;-68
2022/12/22 06:03:34;;;;;;;92.60;26.92;;;8.40;99.90;;;;;;5094654;28;20063;-70
2022/12/22 06:06:00;;;;;;;136.80;28.45;;;8.40;99.90;;;;;;5095304;28;21043;-68
2022/12/22 06:08:26;;;;;;;110.63;28.95;;;8.40;99.90;;;;;;5092850;28;20052;-69
2022/12/22 06:10:57;;;;;;;95.03;28.92;;;8.40;99.90;;;;;;5094789;28;20478;-68
2022/12/22 06:13:24;;;;;;;91.15;27.98;;;8.40;99.90;;;;;;5127486;27;20081;-68
2022/12/22 06:15:49;;;;;;;89.57;33.60;;;8.30;99.90;;;;;;5077204;28;20634;-68
2022/12/22 06:18:15;;;;;;;112.50;46.80;;;8.30;99.90;;;;;;5093678;28;20159;-68
2022/12/22 06:20:40;;;;;;;89.03;32.45;;;8.30;99.90;;;;;;5094791;28;20043;-68
2022/12/22 06:23:06;;;;;;;82.57;29.33;;;8.30;99.90;;;;;;5092834;28;20088;-69
2022/12/22 06:25:32;;;;;;;90.95;43.55;;;8.30;99.90;;;;;;5093690;28;20455;-68
2022/12/22 06:27:57;;;;;;;74.32;31.75;;;8.30;99.90;;;;;;5093747;28;20047;-68
2022/12/22 06:30:23;;;;;;;72.28;29.55;;;8.30;99.90;;;;;;5094204;28;20035;-68
2022/12/22 06:32:49;;;;;;;66.25;28.40;;;8.20;99.90;;;;;;5075297;28;20044;-69
2022/12/22 06:35:14;;;;;;;59.95;25.50;;;8.20;99.90;;;;;;5091010;28;20047;-68
2022/12/22 06:37:40;;;;;;;62.85;25.58;;;8.20;99.90;;;;;;5121571;27;20043;-69
2022/12/22 06:40:07;;;;;;;64.43;25.10;;;8.10;99.90;;;;;;5091078;28;20032;-69
2022/12/22 06:45:16;;;;;;;53.60;23.92;;;8.00;99.90;;;;;;5093537;28;20052;-68
2022/12/22 06:47:42;;;;;;;50.83;23.20;;;7.90;99.90;;;;;;5126187;27;20054;-69
2022/12/22 06:50:08;;;;;;;54.47;24.02;;;7.90;99.90;;;;;;5127101;27;20478;-68
2022/12/22 06:52:34;;;;;;;51.00;22.58;;;7.80;99.90;;;;;;5093461;28;20063;-69
2022/12/22 06:55:01;;;;;;;52.22;22.40;;;7.70;99.90;;;;;;5127789;27;20488;-69
2022/12/22 06:57:27;;;;;;;45.42;22.35;;;7.70;99.90;;;;;;5127716;27;20423;-69
2022/12/22 06:59:52;;;;;;;48.53;22.33;;;7.70;99.90;;;;;;5092711;28;20083;-69
2022/12/22 07:02:18;;;;;;;45.92;21.63;;;7.60;99.90;;;;;;5093387;28;20566;-69
2022/12/22 07:04:44;;;;;;;45.65;21.08;;;7.50;99.90;;;;;;5093690;28;20070;-69
2022/12/22 07:07:10;;;;;;;44.17;20.77;;;7.40;99.90;;;;;;5093169;28;20119;-69
2022/12/22 07:09:35;;;;;;;42.72;20.50;;;7.40;99.90;;;;;;5093284;28;20047;-68
2022/12/22 07:12:01;;;;;;;46.30;20.90;;;7.30;99.90;;;;;;5093634;28;20166;-68
2022/12/22 07:14:27;;;;;;;57.28;22.02;;;7.30;99.90;;;;;;5126021;27;20312;-69
2022/12/22 07:16:52;;;;;;;46.10;20.38;;;7.30;99.90;;;;;;5092843;28;20032;-69
2022/12/22 07:19:18;;;;;;;42.33;20.95;;;7.20;99.90;;;;;;5092776;28;20144;-69
2022/12/22 07:21:46;;;;;;;164.55;22.52;;;7.20;99.90;;;;;;5092723;28;20039;-69
2022/12/22 07:24:11;;;;;;;366.90;26.25;;;7.10;99.90;;;;;;5126841;27;20097;-69
2022/12/22 07:26:37;;;;;;;369.67;25.77;;;7.00;99.90;;;;;;5092620;28;20051;-69
2022/12/22 07:29:03;;;;;;;307.45;25.30;;;7.00;99.90;;;;;;5092925;28;20042;-68
2022/12/22 07:31:28;;;;;;;189.15;22.58;;;7.00;99.90;;;;;;5092593;28;20067;-69
2022/12/22 07:33:54;;;;;;;283.88;24.33;;;6.90;99.90;;;;;;5092436;28;20042;-69
2022/12/22 07:36:20;;;;;;;216.55;22.83;;;6.90;99.90;;;;;;5109201;28;20532;-69
2022/12/22 07:38:48;;;;;;;81.90;19.75;;;6.90;99.90;;;;;;5092304;28;20031;-69
2022/12/22 07:44:01;;;;;;;244.75;22.02;;;6.90;99.90;;;;;;5092085;28;20040;-69
2022/12/22 07:46:30;;;;;;;241.63;21.17;;;6.90;99.90;;;;;;5092228;28;20075;-68
2022/12/22 07:51:41;;;;;;;185.30;19.45;;;6.90;99.90;;;;;;5092144;28;20134;-69
2022/12/22 07:54:08;;;;;;;173.10;18.70;;;6.90;99.90;;;;;;5075258;28;20031;-68
2022/12/22 07:56:34;;;;;;;103.15;16.10;;;6.80;99.90;;;;;;5092084;28;20150;-69
2022/12/22 07:59:00;;;;;;;69.90;15.35;;;6.80;99.90;;;;;;5108606;28;20113;-69
2022/12/22 08:01:26;;;;;;;82.90;15.10;;;6.70;99.90;;;;;;5092403;28;20397;-69
2022/12/22 08:03:52;;;;;;;97.75;15.80;;;6.60;99.90;;;;;;5092058;28;20039;-68
2022/12/22 08:06:17;;;;;;;249.65;19.60;;;6.60;99.90;;;;;;5075350;28;20498;-69
2022/12/22 08:08:43;;;;;;;184.98;17.83;;;6.60;99.90;;;;;;5075249;28;20040;-69
2022/12/22 08:11:09;;;;;;;266.10;19.25;;;6.60;99.90;;;;;;5092115;28;20066;-69
2022/12/22 08:13:35;;;;;;;111.68;16.02;;;6.60;99.90;;;;;;5092297;28;20088;-68
2022/12/22 08:16:05;;;;;;;147.70;17.50;;;6.60;99.90;;;;;;5091987;28;20122;-69
2022/12/22 08:18:31;;;;;;;180.55;18.10;;;6.60;99.90;;;;;;5091982;28;20122;-69
2022/12/22 08:20:57;;;;;;;144.35;17.58;;;6.50;99.90;;;;;;5091739;28;20122;-68
2022/12/22 08:23:22;;;;;;;128.88;15.70;;;6.50;99.90;;;;;;5091536;28;20455;-68
2022/12/22 08:25:54;;;;;;;248.60;18.23;;;6.50;99.90;;;;;;5091466;28;20418;-69
2022/12/22 08:28:20;;;;;;;142.07;15.00;;;6.50;99.90;;;;;;5073834;28;20062;-69
2022/12/22 08:30:47;;;;;;;107.45;13.70;;;6.50;99.90;;;;;;5092023;28;20538;-69
2022/12/22 08:33:13;;;;;;;175.18;14.00;;;6.40;99.90;;;;;;5125904;28;20118;-69
2022/12/22 08:35:38;;;;;;;114.53;13.40;;;6.40;99.90;;;;;;5091833;28;20135;-69
2022/12/22 08:38:05;;;;;;;149.35;15.55;;;6.40;99.90;;;;;;5091863;28;20410;-70
2022/12/22 08:40:31;;;;;;;184.15;15.43;;;6.40;99.90;;;;;;5091642;28;20066;-69
2022/12/22 08:43:03;;;;;;;129.57;14.40;;;6.40;99.90;;;;;;5092043;28;20511;-69
2022/12/22 08:45:29;;;;;;;324.25;17.85;;;6.40;99.90;;;;;;5091895;28;20036;-69
2022/12/22 08:47:55;;;;;;;267.20;18.15;;;6.50;99.90;;;;;;5091606;28;20486;-69
2022/12/22 08:50:20;;;;;;;292.38;18.42;;;6.50;99.90;;;;;;5091752;28;20122;-69
2022/12/22 08:52:46;;;;;;;230.50;18.85;;;6.50;99.90;;;;;;5091656;28;20071;-69
2022/12/22 08:55:12;;;;;;;158.70;17.10;;;6.40;99.90;;;;;;5091697;28;20114;-69
2022/12/22 08:57:38;;;;;;;125.18;16.70;;;6.40;99.90;;;;;;5125653;28;20051;-69
2022/12/22 09:00:07;;;;;;;137.90;16.52;;;6.40;99.90;;;;;;5110135;28;20394;-69
2022/12/22 09:02:33;;;;;;;113.28;17.58;;;6.40;99.90;;;;;;5091273;28;20035;-69
2022/12/22 09:04:59;;;;;;;141.02;17.48;;;6.40;99.90;;;;;;5091501;28;20039;-69
2022/12/22 09:07:25;;;;;;;244.68;19.92;;;6.50;99.90;;;;;;5091095;28;20047;-69
2022/12/22 09:09:50;;;;;;;304.92;21.00;;;6.50;99.90;;;;;;5091704;28;20382;-69
2022/12/22 09:12:17;;;;;;;158.27;17.75;;;6.50;99.90;;;;;;5091590;28;20050;-70
2022/12/22 09:14:43;;;;;;;171.40;17.05;;;6.50;99.90;;;;;;5109661;28;20463;-69
2022/12/22 09:17:08;;;;;;;138.65;15.80;;;6.50;99.90;;;;;;5091469;28;20478;-69
2022/12/22 09:19:34;;;;;;;196.60;17.00;;;6.50;99.90;;;;;;5074488;28;20052;-69
2022/12/22 09:22:00;;;;;;;203.23;16.45;;;6.40;99.90;;;;;;5091234;28;20051;-69
2022/12/22 09:24:25;;;;;;;63.25;12.65;;;6.40;99.90;;;;;;5088782;28;20031;-69
2022/12/22 09:26:51;;;;;;;164.23;14.82;;;6.40;99.90;;;;;;5125238;28;20410;-69
2022/12/22 09:29:17;;;;;;;124.35;13.65;;;6.40;99.90;;;;;;5091335;28;20062;-70
2022/12/22 09:31:43;;;;;;;134.25;13.63;;;6.30;99.90;;;;;;5091184;28;20046;-69
2022/12/22 09:34:09;;;;;;;114.80;13.05;;;6.30;99.90;;;;;;5091217;28;20126;-69
2022/12/22 09:36:38;;;;;;;98.50;12.90;;;6.30;99.90;;;;;;5077122;28;20549;-69
2022/12/22 09:39:06;;;;;;;111.80;13.10;;;6.30;99.90;;;;;;5095036;28;20105;-71
2022/12/22 09:41:50;;;;;;;125.57;13.18;;;6.20;99.90;;;;;;5094352;28;20036;-69
2022/12/22 09:44:24;;;;;;;71.82;11.45;;;6.30;99.90;;;;;;5095102;28;20382;-70
2022/12/22 09:46:52;;;;;;;68.85;11.35;;;6.20;99.90;;;;;;5094635;28;20498;-69
2022/12/22 09:49:19;;;;;;;146.52;12.65;;;6.30;99.90;;;;;;5077906;28;20150;-70
2022/12/22 09:52:01;;;;;;;72.13;10.20;;;6.30;99.90;;;;;;5077681;28;20548;-69
2022/12/22 09:54:28;;;;;;;63.97;10.80;;;6.30;99.90;;;;;;5094361;28;20039;-69
2022/12/22 09:56:54;;;;;;;49.78;9.57;;;6.30;99.90;;;;;;5094565;28;20047;-69
2022/12/22 09:59:21;;;;;;;77.57;11.13;;;6.30;99.90;;;;;;5094397;28;20036;-69
2022/12/22 10:02:04;;;;;;;51.63;10.23;;;6.30;99.90;;;;;;5094239;28;20039;-69
2022/12/22 10:05:11;;;;;;;43.42;10.55;;;6.30;99.90;;;;;;5094528;28;20481;-69
2022/12/22 10:07:39;;;;;;;36.97;11.43;;;6.30;99.90;;;;;;5094096;28;20051;-69
2022/12/22 10:10:19;;;;;;;42.10;11.43;;;6.30;99.90;;;;;;5094539;28;20032;-69
2022/12/22 10:12:47;;;;;;;37.42;10.70;;;6.30;99.90;;;;;;5094074;28;20039;-69
2022/12/22 10:15:13;;;;;;;39.03;11.00;;;6.30;99.90;;;;;;5094363;28;20122;-69
2022/12/22 10:17:39;;;;;;;32.40;10.45;;;6.40;99.90;;;;;;5094172;28;20114;-69
2022/12/22 10:20:26;;;;;;;26.40;8.98;;;6.40;99.90;;;;;;5093821;28;20173;-70
2022/12/22 10:23:05;;;;;;;29.65;9.82;;;6.40;99.90;;;;;;5128346;27;20035;-69
2022/12/22 10:25:37;;;;;;;26.63;9.80;;;6.40;99.90;;;;;;5127980;27;20059;-69
2022/12/22 10:28:12;;;;;;;28.23;9.38;;;6.50;99.90;;;;;;5093652;28;20112;-68
2022/12/22 10:30:39;;;;;;;25.67;9.50;;;6.60;99.90;;;;;;5093653;28;20048;-69
2022/12/22 10:33:14;;;;;;;29.27;10.10;;;6.60;99.90;;;;;;5093508;28;20149;-69
2022/12/22 10:35:52;;;;;;;25.27;9.25;;;6.70;99.90;;;;;;5093811;28;20469;-70
2022/12/22 10:38:36;;;;;;;24.00;9.65;;;6.70;99.90;;;;;;5127825;27;20042;-69
2022/12/22 10:41:18;;;;;;;27.38;10.18;;;6.70;99.90;;;;;;5093606;28;20027;-69
2022/12/22 10:43:59;;;;;;;23.63;8.77;;;6.70;99.90;;;;;;5093858;28;20054;-69
2022/12/22 10:46:41;;;;;;;25.55;9.73;;;6.60;99.90;;;;;;5093246;28;20049;-69
2022/12/22 10:49:36;;;;;;;28.87;9.57;;;6.60;99.90;;;;;;5093195;28;20119;-69
2022/12/22 10:52:18;;;;;;;21.02;9.68;;;6.70;99.90;;;;;;5093145;28;20046;-69
2022/12/22 10:54:45;;;;;;;23.27;9.90;;;6.70;99.90;;;;;;5093383;28;20040;-70
2022/12/22 10:57:14;;;;;;;24.10;9.35;;;6.80;99.90;;;;;;5127489;27;20414;-70
2022/12/22 10:59:58;;;;;;;23.65;9.65;;;6.90;99.90;;;;;;5093450;28;20432;-69
2022/12/22 11:02:36;;;;;;;24.45;9.35;;;7.00;99.90;;;;;;5127423;27;20054;-69
2022/12/22 11:05:11;;;;;;;20.77;9.05;;;7.00;99.90;;;;;;5093141;28;20051;-69
2022/12/22 11:07:42;;;;;;;23.65;9.60;;;7.00;99.90;;;;;;5093024;28;20471;-69
2022/12/22 11:10:27;;;;;;;18.88;8.77;;;7.00;99.90;;;;;;5075898;28;20048;-69
2022/12/22 11:13:02;;;;;;;26.40;10.68;;;7.20;99.90;;;;;;5075498;28;20079;-69
2022/12/22 11:15:38;;;;;;;20.55;10.57;;;7.40;99.90;;;;;;5093155;28;20042;-69
2022/12/22 11:18:04;;;;;;;27.08;12.35;;;7.50;99.90;;;;;;5093324;28;20085;-69
2022/12/22 11:21:04;;;;;;;26.88;13.00;;;7.70;99.90;;;;;;5092832;28;20039;-70
2022/12/22 11:23:40;;;;;;;22.60;12.90;;;8.00;99.90;;;;;;5011724;28;20514;-69
2022/12/22 11:26:40;;;;;;;23.42;12.65;;;8.30;99.90;;;;;;4994193;28;20049;-70
2022/12/22 11:29:21;;;;;;;21.60;12.05;;;8.50;99.90;;;;;;4991953;28;20116;-69
2022/12/22 11:32:25;;;;;;;19.00;10.15;;;8.40;99.90;;;;;;4991877;28;20098;-70
2022/12/22 11:34:56;;;;;;;18.60;9.07;;;8.40;99.90;;;;;;4991862;28;20050;-69
2022/12/22 11:37:51;;;;;;;17.80;9.15;;;8.70;99.90;;;;;;5008076;28;20042;-69
2022/12/22 11:40:19;;;;;;;18.27;7.32;;;9.00;99.90;;;;;;5006554;28;20206;-69
2022/12/22 11:43:15;;;;;;;16.55;7.55;;;8.90;99.90;;;;;;5008189;28;20464;-69
2022/12/22 11:46:00;;;;;;;20.73;7.85;;;9.10;99.90;;;;;;4991499;28;20116;-69
2022/12/22 11:48:40;;;;;;;16.50;7.68;;;9.30;99.90;;;;;;4991505;28;20511;-69
2022/12/22 11:51:36;;;;;;;18.00;7.78;;;9.70;99.90;;;;;;4991580;28;20041;-69
2022/12/22 11:54:14;;;;;;;14.07;7.20;;;9.40;99.90;;;;;;4991438;28;20045;-70
2022/12/22 11:56:43;;;;;;;13.77;5.85;;;9.50;99.90;;;;;;5007568;28;20381;-69
2022/12/22 11:59:40;;;;;;;16.08;6.88;;;9.50;99.90;;;;;;5017359;28;20542;-69
2022/12/22 12:02:36;;;;;;;15.68;6.00;;;9.80;99.90;;;;;;5050809;28;20044;-69
2022/12/22 12:05:20;;;;;;;23.58;7.22;;;10.20;99.90;;;;;;5077474;28;20186;-70
2022/12/22 12:07:55;;;;;;;14.15;5.88;;;10.50;99.90;;;;;;5092043;28;20092;-70
2022/12/22 12:10:34;;;;;;;14.13;6.68;;;11.00;99.90;;;;;;5092124;28;20127;-69
2022/12/22 12:13:21;;;;;;;12.75;5.75;;;11.70;99.90;;;;;;5126091;27;20031;-70
2022/12/22 12:16:04;;;;;;;14.70;6.45;;;12.50;99.90;;;;;;5091769;28;20123;-69
2022/12/22 12:18:55;;;;;;;14.30;6.68;;;12.30;99.90;;;;;;5126133;27;20115;-70
2022/12/22 12:21:27;;;;;;;15.70;6.93;;;11.40;99.90;;;;;;5091679;28;20452;-70
2022/12/22 12:23:56;;;;;;;;;;;11.10;99.90;;;;;;5091930;28;20055;-69
2022/12/22 12:26:28;;;;;;;17.00;8.07;;;10.90;99.90;;;;;;5125741;28;19915;-69
2022/12/22 12:29:12;;;;;;;14.95;7.53;;;11.00;99.90;;;;;;5091763;28;20101;-70
2022/12/22 12:32:01;;;;;;;15.70;7.28;;;11.70;99.90;;;;;;5091775;28;20039;-69
2022/12/22 12:34:32;;;;;;;16.45;7.68;;;11.90;99.90;;;;;;5074813;28;20125;-69
2022/12/22 12:37:14;;;;;;;18.48;7.50;;;11.60;99.90;;;;;;5091685;28;20035;-69
2022/12/22 12:40:24;;;;;;;14.57;6.95;;;12.10;99.90;;;;;;5090292;28;20053;-70
2022/12/22 12:42:54;;;;;;;18.85;7.25;;;12.80;99.90;;;;;;5091575;28;20032;-69
2022/12/22 12:45:35;;;;;;;18.05;6.60;;;12.10;99.90;;;;;;5091779;28;20050;-69
2022/12/22 12:48:19;;;;;;;14.35;6.22;;;12.10;99.90;;;;;;5091672;28;20036;-70
2022/12/22 12:50:52;;;;;;;11.52;5.55;;;13.00;99.90;;;;;;5090590;28;20473;-70
2022/12/22 12:53:19;;;;;;;11.63;5.15;;;14.10;99.90;;;;;;5126015;28;20562;-69
2022/12/22 12:55:51;;;;;;;12.82;5.93;;;13.90;99.90;;;;;;5125946;28;20503;-70
2022/12/22 12:58:38;;;;;;;12.32;5.30;;;14.10;99.90;;;;;;5126011;28;20444;-70
2022/12/22 13:01:08;;;;;;;12.15;4.93;;;13.70;99.90;;;;;;5125589;28;20130;-69
2022/12/22 13:03:37;;;;;;;11.05;5.35;;;12.70;99.90;;;;;;5091717;28;20493;-70
2022/12/22 13:06:07;;;;;;;10.90;5.10;;;12.30;99.90;;;;;;5125417;28;20108;-70
2022/12/22 13:09:03;;;;;;;9.85;5.55;;;11.80;99.90;;;;;;5125475;28;20032;-70
2022/12/22 13:11:36;;;;;;;10.27;5.45;;;11.10;99.90;;;;;;5094374;28;20051;-70
2022/12/22 13:14:03;;;;;;;12.20;5.50;;;10.70;99.90;;;;;;5095295;28;20036;-70
2022/12/22 13:16:33;;;;;;;11.02;5.50;;;10.40;99.90;;;;;;5129680;27;20058;-70
2022/12/22 13:19:04;;;;;;;13.35;5.60;;;10.10;99.90;;;;;;5078126;28;20043;-69
2022/12/22 13:21:40;;;;;;;14.15;5.75;;;9.80;99.90;;;;;;5095245;28;20042;-69
2022/12/22 13:24:28;;;;;;;12.85;5.53;;;9.60;99.90;;;;;;5077945;28;20031;-70
2022/12/22 13:26:59;;;;;;;10.30;5.65;;;9.40;99.90;;;;;;5128961;27;20087;-70
2022/12/22 13:29:40;;;;;;;14.73;6.30;;;9.30;99.90;;;;;;5094429;28;20032;-70
2022/12/22 13:32:33;;;;;;;16.83;6.95;;;9.30;99.90;;;;;;5095276;28;20100;-69
2022/12/22 13:35:12;;;;;;;14.00;5.90;;;9.20;99.90;;;;;;5129346;27;20047;-69
2022/12/22 13:37:41;;;;;;;14.15;6.68;;;9.20;99.90;;;;;;5129379;27;20552;-70
2022/12/22 13:40:12;;;;;;;10.75;5.90;;;9.10;99.90;;;;;;5128971;27;20059;-69
2022/12/22 13:42:48;;;;;;;14.57;6.30;;;9.10;99.90;;;;;;5129268;27;20040;-70
2022/12/22 13:45:47;;;;;;;16.65;7.50;;;9.10;99.90;;;;;;5128933;27;20039;-69
2022/12/22 13:48:17;;;;;;;11.02;5.50;;;9.20;99.90;;;;;;5033331;28;20053;-69
2022/12/22 13:50:52;;;;;;;13.52;6.10;;;9.20;99.90;;;;;;5050028;28;20527;-71
2022/12/22 13:53:39;;;;;;;12.45;5.85;;;9.30;99.90;;;;;;5032968;28;20053;-70
2022/12/22 13:56:07;;;;;;;11.35;5.55;;;9.30;99.90;;;;;;5033231;28;20127;-70
2022/12/22 13:58:37;;;;;;;11.32;5.78;;;9.30;99.90;;;;;;5032990;28;20041;-69
2022/12/22 14:01:09;;;;;;;10.50;5.43;;;9.20;99.90;;;;;;5033226;28;20039;-70
2022/12/22 14:03:36;;;;;;;15.53;6.20;;;9.10;99.90;;;;;;5033023;28;20045;-70
2022/12/22 14:06:01;;;;;;;11.50;5.47;;;9.00;99.90;;;;;;5033320;28;20056;-70
2022/12/22 14:08:27;;;;;;;12.07;5.07;;;8.90;99.90;;;;;;5016449;28;20041;-69
2022/12/22 14:10:54;;;;;;;12.02;4.95;;;8.90;99.90;;;;;;5033148;28;20048;-70
2022/12/22 14:13:26;;;;;;;11.82;5.28;;;8.80;99.90;;;;;;5032744;28;20435;-69
2022/12/22 14:16:00;;;;;;;13.70;5.32;;;8.80;99.90;;;;;;5032942;28;20178;-69
2022/12/22 14:18:26;;;;;;;13.95;5.00;;;8.80;99.90;;;;;;5049258;28;20072;-70
2022/12/22 14:20:53;;;;;;;8.90;4.82;;;8.70;99.90;;;;;;5032406;28;20045;-70
2022/12/22 14:23:23;;;;;;;11.38;4.88;;;8.70;99.90;;;;;;5031615;28;20052;-69
2022/12/22 14:25:52;;;;;;;11.73;4.68;;;8.70;99.90;;;;;;5064723;28;20143;-70
2022/12/22 14:28:18;;;;;;;11.98;5.00;;;8.70;99.90;;;;;;5093604;28;20043;-69
2022/12/22 14:30:48;;;;;;;8.90;4.47;;;8.70;99.90;;;;;;5093913;28;20069;-70
2022/12/22 14:33:31;;;;;;;10.18;4.53;;;8.70;99.90;;;;;;5127787;27;20043;-69
2022/12/22 14:36:24;;;;;;;12.35;4.32;;;8.60;99.90;;;;;;5093713;28;20069;-70
2022/12/22 14:38:55;;;;;;;6.78;3.53;;;8.60;99.90;;;;;;5090855;28;20086;-69
2022/12/22 14:41:40;;;;;;;9.25;4.05;;;8.60;99.90;;;;;;5127636;27;20036;-70
2022/12/22 14:44:14;;;;;;;11.40;4.55;;;8.50;99.90;;;;;;5127889;27;20027;-70
2022/12/22 14:46:41;;;;;;;10.52;4.13;;;8.50;99.90;;;;;;5110438;28;20107;-69
2022/12/22 14:49:16;;;;;;;10.32;4.03;;;8.50;99.90;;;;;;5127456;27;20031;-70
2022/12/22 14:51:51;;;;;;;10.85;3.72;;;8.40;99.90;;;;;;5093776;28;20042;-69
2022/12/22 14:54:24;;;;;;;10.82;4.22;;;8.40;99.90;;;;;;5076157;28;20059;-69
2022/12/22 14:56:53;;;;;;;9.27;3.78;;;8.40;99.90;;;;;;5127508;27;20067;-69
2022/12/22 14:59:27;;;;;;;8.13;3.80;;;8.30;99.90;;;;;;5127214;27;20027;-70
2022/12/22 15:01:57;;;;;;;10.32;4.70;;;8.30;99.90;;;;;;5092982;28;20382;-70
2022/12/22 15:04:23;;;;;;;11.55;5.32;;;8.20;99.90;;;;;;5127462;27;20470;-70
2022/12/22 15:06:49;;;;;;;13.95;6.82;;;8.20;99.90;;;;;;5093119;28;20208;-69
2022/12/22 15:09:14;;;;;;;12.50;5.03;;;8.20;99.90;;;;;;5092807;28;20084;-70
2022/12/22 15:11:43;;;;;;;11.00;4.20;;;8.20;99.90;;;;;;5093345;28;20126;-70
2022/12/22 15:14:13;;;;;;;11.35;4.68;;;8.20;99.90;;;;;;5092853;28;20031;-70
2022/12/22 15:16:38;;;;;;;7.93;4.28;;;8.20;99.90;;;;;;5127496;27;20031;-69
2022/12/22 15:19:05;;;;;;;11.00;4.95;;;8.20;99.90;;;;;;5092836;28;20039;-69
2022/12/22 15:21:32;;;;;;;13.32;4.85;;;8.10;99.90;;;;;;5092887;28;20035;-69
2022/12/22 15:23:57;;;;;;;10.93;5.05;;;8.10;99.90;;;;;;5126984;27;20436;-70
2022/12/22 15:26:23;;;;;;;10.10;5.28;;;8.10;99.90;;;;;;5092674;28;20096;-69
2022/12/22 15:28:48;;;;;;;16.88;5.80;;;8.10;99.90;;;;;;5092663;28;20085;-70
2022/12/22 15:31:15;;;;;;;8.90;4.82;;;8.10;99.90;;;;;;5092555;28;20035;-70
2022/12/22 15:33:42;;;;;;;10.90;5.40;;;8.10;99.90;;;;;;5092698;28;20055;-70
2022/12/22 15:36:12;;;;;;;13.63;6.00;;;8.10;99.90;;;;;;5126995;27;20047;-70
2022/12/22 15:38:39;;;;;;;13.55;6.20;;;8.10;99.90;;;;;;5092800;28;20050;-70
2022/12/22 15:41:05;;;;;;;13.23;6.75;;;8.10;99.90;;;;;;5110497;28;20040;-70
2022/12/22 15:43:31;;;;;;;14.00;6.95;;;8.10;99.90;;;;;;5092453;28;20504;-70
2022/12/22 15:45:57;;;;;;;12.20;7.65;;;8.10;99.90;;;;;;5092210;28;20044;-69
2022/12/22 15:48:31;;;;;;;12.25;6.88;;;8.10;99.90;;;;;;5109222;28;20039;-70
2022/12/22 15:50:58;;;;;;;13.02;7.97;;;8.10;99.90;;;;;;5109619;28;20512;-70
2022/12/22 15:53:23;;;;;;;8.85;6.97;;;8.00;99.90;;;;;;5092151;28;20092;-69
2022/12/22 15:55:52;;;;;;;14.95;8.50;;;8.00;99.90;;;;;;5092230;28;20477;-70
2022/12/22 15:58:20;;;;;;;13.15;8.38;;;7.90;99.90;;;;;;5092438;28;20044;-69
2022/12/22 16:00:46;;;;;;;14.00;9.10;;;7.90;99.90;;;;;;5092165;28;20035;-69
2022/12/22 16:03:12;;;;;;;16.40;9.30;;;7.90;99.90;;;;;;5092400;28;20036;-69
2022/12/22 16:05:39;;;;;;;11.85;9.25;;;7.80;99.90;;;;;;5091895;28;20177;-69
2022/12/22 16:08:17;;;;;;;13.18;9.95;;;7.80;99.90;;;;;;5091978;28;20057;-69
2022/12/22 16:10:43;;;;;;;19.45;10.05;;;7.70;99.90;;;;;;5092195;28;20527;-69
2022/12/22 16:13:12;;;;;;;16.02;10.10;;;7.70;99.90;;;;;;5092377;28;20100;-70
2022/12/22 16:15:37;;;;;;;15.10;10.68;;;7.60;99.90;;;;;;5125931;27;20050;-70
2022/12/22 16:18:04;;;;;;;19.30;11.52;;;7.60;99.90;;;;;;5091841;28;20039;-69
2022/12/22 16:20:35;;;;;;;19.98;11.43;;;7.60;99.90;;;;;;5091821;28;20397;-70
2022/12/22 16:23:01;;;;;;;17.35;11.57;;;7.50;99.90;;;;;;5092110;28;20046;-70
2022/12/22 16:25:36;;;;;;;19.50;12.60;;;7.50;99.90;;;;;;5074651;28;20055;-70
2022/12/22 16:28:02;;;;;;;18.10;12.30;;;7.50;99.90;;;;;;5091753;28;20052;-70
2022/12/22 16:30:31;;;;;;;20.77;12.80;;;7.40;99.90;;;;;;5091609;28;20132;-69
2022/12/22 16:32:57;;;;;;;22.52;13.35;;;7.40;99.90;;;;;;5091529;28;20031;-69
2022/12/22 16:35:25;;;;;;;24.05;13.70;;;7.40;99.90;;;;;;5091567;28;20059;-69
2022/12/22 16:37:54;;;;;;;21.13;12.48;;;7.40;99.90;;;;;;5091726;28;20372;-69
2022/12/22 16:40:20;;;;;;;20.83;12.95;;;7.40;99.90;;;;;;5091728;28;20047;-69
2022/12/22 16:43:19;;;;;;;26.90;13.75;;;7.40;99.90;;;;;;5091765;28;20425;-70